createdAt,value
2023-01-30T00:01:44.798Z,5.45
2023-01-30T00:04:16.084Z,5.44
2023-01-30T00:06:45.998Z,5.44
2023-01-30T00:09:15.117Z,5.44
2023-01-30T00:11:43.039Z,5.44
2023-01-30T00:14:10.720Z,5.45
2023-01-30T00:16:38.469Z,5.42
2023-01-30T00:19:07.153Z,5.42
2023-01-30T00:21:34.998Z,5.43
2023-01-30T00:24:04.111Z,5.43
2023-01-30T00:26:31.807Z,5.44
2023-01-30T00:28:59.442Z,5.45
2023-01-30T00:31:27.173Z,5.46
2023-01-30T00:33:55.148Z,5.46
2023-01-30T00:36:22.754Z,5.45
2023-01-30T00:38:50.332Z,5.42
2023-01-30T00:41:19.250Z,5.46
2023-01-30T00:44:04.560Z,5.44
2023-01-30T00:46:52.198Z,5.46
2023-01-30T00:49:20.707Z,5.48
2023-01-30T00:51:48.461Z,5.50
2023-01-30T00:54:16.168Z,5.50
2023-01-30T00:56:45.220Z,5.52
2023-01-30T00:59:12.804Z,5.56
2023-01-30T01:01:40.729Z,5.61
2023-01-30T01:04:10.490Z,5.56
2023-01-30T01:06:38.357Z,5.61
2023-01-30T01:09:06.885Z,5.62
2023-01-30T01:11:34.533Z,5.62
2023-01-30T01:14:05.763Z,5.66
2023-01-30T01:16:34.985Z,5.70
2023-01-30T01:19:03.668Z,5.71
2023-01-30T01:21:31.381Z,5.71
2023-01-30T01:24:00.656Z,5.76
2023-01-30T01:26:28.731Z,5.74
2023-01-30T01:28:56.929Z,5.75
2023-01-30T01:31:26.658Z,5.76
2023-01-30T01:33:54.366Z,5.78
2023-01-30T01:36:51.534Z,5.78
2023-01-30T01:39:10.142Z,5.79
2023-01-30T01:41:36.799Z,5.81
2023-01-30T01:44:07.281Z,5.82
2023-01-30T01:46:39.660Z,5.83
2023-01-30T01:49:13.709Z,5.86
2023-01-30T01:51:47.431Z,5.89
2023-01-30T01:54:19.656Z,5.90
2023-01-30T01:56:50.727Z,5.95
2023-01-30T01:59:23.714Z,5.96
2023-01-30T02:01:56.942Z,5.98
2023-01-30T02:04:40.300Z,5.72
2023-01-30T02:07:09.616Z,5.47
2023-01-30T02:09:37.850Z,5.32
2023-01-30T02:12:06.888Z,5.28
2023-01-30T02:14:35.351Z,5.21
2023-01-30T02:17:04.336Z,5.15
2023-01-30T02:19:40.314Z,5.13
2023-01-30T02:22:36.560Z,5.08
2023-01-30T02:25:46.910Z,5.08
2023-01-30T02:28:37.820Z,5.08
2023-01-30T02:31:18.829Z,5.10
2023-01-30T02:33:57.203Z,5.10
2023-01-30T02:36:33.965Z,5.10
2023-01-30T02:39:08.809Z,5.10
2023-01-30T02:41:44.809Z,5.09
2023-01-30T02:44:19.060Z,5.12
2023-01-30T02:46:54.666Z,5.11
2023-01-30T02:49:27.535Z,5.10
2023-01-30T02:51:57.731Z,5.11
2023-01-30T02:54:25.317Z,5.12
2023-01-30T02:56:54.568Z,5.11
2023-01-30T02:59:25.399Z,5.13
2023-01-30T03:02:24.115Z,5.12
2023-01-30T03:05:31.069Z,5.10
2023-01-30T03:08:08.542Z,5.05
2023-01-30T03:10:39.426Z,4.96
2023-01-30T03:13:13.575Z,4.89
2023-01-30T03:15:46.047Z,4.85
2023-01-30T03:18:15.443Z,4.79
2023-01-30T03:20:43.093Z,4.77
2023-01-30T03:23:11.160Z,4.76
2023-01-30T03:25:42.296Z,4.76
2023-01-30T03:28:11.933Z,4.78
2023-01-30T03:30:39.563Z,4.76
2023-01-30T03:33:07.231Z,4.68
2023-01-30T03:35:36.613Z,4.63
2023-01-30T03:38:04.225Z,4.56
2023-01-30T03:40:31.890Z,4.52
2023-01-30T03:42:59.534Z,4.45
2023-01-30T03:45:27.170Z,4.40
2023-01-30T03:47:54.901Z,4.33
2023-01-30T03:50:22.535Z,4.30
2023-01-30T03:52:51.563Z,4.26
2023-01-30T03:55:19.663Z,4.24
2023-01-30T03:57:47.692Z,4.18
2023-01-30T04:00:16.496Z,4.15
2023-01-30T04:02:44.440Z,4.10
2023-01-30T04:05:12.091Z,4.09
2023-01-30T04:07:39.700Z,4.06
2023-01-30T04:10:09.870Z,4.04
2023-01-30T04:12:37.496Z,3.99
2023-01-30T04:15:05.722Z,3.95
2023-01-30T04:17:33.377Z,3.95
2023-01-30T04:20:01.044Z,3.91
2023-01-30T04:22:28.678Z,3.89
2023-01-30T04:24:56.265Z,3.86
2023-01-30T04:27:25.240Z,3.84
2023-01-30T04:29:52.894Z,3.83
2023-01-30T04:32:20.521Z,3.82
2023-01-30T04:34:48.199Z,3.82
2023-01-30T04:37:15.772Z,3.81
2023-01-30T04:39:43.482Z,3.81
2023-01-30T04:42:11.086Z,3.82
2023-01-30T04:44:40.155Z,3.83
2023-01-30T04:47:07.972Z,3.85
2023-01-30T04:49:35.593Z,3.86
2023-01-30T04:52:03.190Z,3.87
2023-01-30T04:54:30.922Z,3.90
2023-01-30T04:56:58.680Z,3.96
2023-01-30T04:59:26.425Z,4.01
2023-01-30T05:01:55.827Z,4.04
2023-01-30T05:04:23.426Z,4.09
2023-01-30T05:06:51.077Z,4.13
2023-01-30T05:09:18.904Z,4.14
2023-01-30T05:11:46.551Z,4.15
2023-01-30T05:14:14.367Z,4.12
2023-01-30T05:16:41.987Z,4.12
2023-01-30T05:19:13.835Z,4.14
2023-01-30T05:21:41.582Z,4.14
2023-01-30T05:24:09.553Z,4.15
2023-01-30T05:26:37.408Z,4.14
2023-01-30T05:29:05.070Z,4.18
2023-01-30T05:31:32.653Z,4.21
2023-01-30T05:34:00.242Z,4.24
2023-01-30T05:36:29.228Z,4.27
2023-01-30T05:38:56.824Z,4.26
2023-01-30T05:41:24.457Z,4.25
2023-01-30T05:43:52.507Z,4.22
2023-01-30T05:46:20.608Z,4.24
2023-01-30T05:48:48.373Z,4.28
2023-01-30T05:51:18.825Z,4.30
2023-01-30T05:53:48.357Z,4.35
2023-01-30T05:56:17.007Z,4.39
2023-01-30T05:58:45.160Z,4.42
2023-01-30T06:01:14.081Z,4.45
2023-01-30T06:03:41.820Z,4.46
2023-01-30T06:06:09.554Z,4.47
2023-01-30T06:08:37.218Z,4.49
2023-01-30T06:11:08.424Z,4.51
2023-01-30T06:13:36.157Z,4.50
2023-01-30T06:16:04.690Z,4.48
2023-01-30T06:18:32.570Z,4.51
2023-01-30T06:21:00.239Z,4.53
2023-01-30T06:23:28.985Z,4.56
2023-01-30T06:25:56.685Z,4.60
2023-01-30T06:28:26.618Z,4.61
2023-01-30T06:30:55.256Z,4.65
2023-01-30T06:33:22.909Z,4.70
2023-01-30T06:35:52.617Z,4.74
2023-01-30T06:38:21.316Z,4.75
2023-01-30T06:40:50.674Z,4.75
2023-01-30T06:43:18.846Z,4.76
2023-01-30T06:45:47.821Z,4.78
2023-01-30T06:48:15.538Z,4.77
2023-01-30T06:50:43.319Z,4.75
2023-01-30T06:53:11.959Z,4.77
2023-01-30T06:55:39.614Z,4.84
2023-01-30T06:58:09.000Z,4.86
2023-01-30T07:00:39.489Z,4.88
2023-01-30T07:03:11.876Z,4.94
2023-01-30T07:05:40.190Z,4.92
2023-01-30T07:08:08.013Z,4.95
2023-01-30T07:10:36.000Z,4.97
2023-01-30T07:13:03.684Z,4.98
2023-01-30T07:15:32.187Z,4.97
2023-01-30T07:18:00.295Z,4.96
2023-01-30T07:20:30.191Z,4.95
2023-01-30T07:22:57.980Z,4.99
2023-01-30T07:25:27.696Z,5.05
2023-01-30T07:27:57.824Z,5.13
2023-01-30T07:30:26.163Z,5.21
2023-01-30T07:32:54.534Z,5.29
2023-01-30T07:35:23.215Z,5.37
2023-01-30T07:37:52.821Z,5.35
2023-01-30T07:40:21.547Z,5.32
2023-01-30T07:42:57.666Z,5.29
2023-01-30T07:45:25.403Z,5.24
2023-01-30T07:47:53.289Z,5.21
2023-01-30T07:50:21.038Z,5.16
2023-01-30T07:52:48.830Z,5.16
2023-01-30T07:55:18.176Z,5.06
2023-01-30T07:57:45.976Z,4.71
2023-01-30T08:00:14.763Z,4.57
2023-01-30T08:02:42.416Z,4.36
2023-01-30T08:05:10.598Z,4.13
2023-01-30T08:07:38.233Z,3.96
2023-01-30T08:10:06.737Z,3.91
2023-01-30T08:12:35.698Z,3.57
2023-01-30T08:15:03.285Z,3.18
2023-01-30T08:17:30.907Z,3.07
2023-01-30T08:19:58.700Z,3.09
2023-01-30T08:22:26.533Z,2.96
2023-01-30T08:24:54.091Z,2.91
2023-01-30T08:27:21.848Z,2.82
2023-01-30T08:29:50.827Z,2.82
2023-01-30T08:32:18.406Z,2.83
2023-01-30T08:34:46.046Z,2.85
2023-01-30T08:37:13.995Z,2.89
2023-01-30T08:39:41.592Z,2.96
2023-01-30T08:42:09.201Z,2.99
2023-01-30T08:44:36.830Z,3.05
2023-01-30T08:47:05.960Z,3.07
2023-01-30T08:49:33.567Z,3.16
2023-01-30T08:52:01.163Z,3.25
2023-01-30T08:54:28.940Z,3.44
2023-01-30T08:56:56.625Z,3.65
2023-01-30T08:59:24.281Z,3.70
2023-01-30T09:01:51.838Z,3.80
2023-01-30T09:04:21.168Z,3.92
2023-01-30T09:06:48.758Z,4.04
2023-01-30T09:09:16.362Z,4.10
2023-01-30T09:11:43.984Z,4.17
2023-01-30T09:14:11.571Z,4.24
2023-01-30T09:16:39.133Z,4.33
2023-01-30T09:19:06.815Z,4.43
2023-01-30T09:21:35.794Z,4.58
2023-01-30T09:24:03.432Z,4.75
2023-01-30T09:26:31.148Z,4.87
2023-01-30T09:28:58.917Z,5.16
2023-01-30T09:31:26.674Z,5.35
2023-01-30T09:33:54.293Z,5.50
2023-01-30T09:36:21.896Z,5.65
2023-01-30T09:38:50.873Z,5.68
2023-01-30T09:41:47.518Z,5.47
2023-01-30T09:44:58.481Z,5.30
2023-01-30T09:47:36.031Z,5.01
2023-01-30T09:50:20.444Z,4.01
2023-01-30T09:52:57.288Z,3.18
2023-01-30T09:55:29.213Z,2.99
2023-01-30T09:57:59.593Z,2.97
2023-01-30T10:00:34.307Z,2.87
2023-01-30T10:03:07.815Z,2.80
2023-01-30T10:05:41.498Z,2.88
2023-01-30T10:08:38.148Z,3.14
2023-01-30T10:11:17.044Z,3.47
2023-01-30T10:14:05.492Z,3.73
2023-01-30T10:16:39.034Z,4.01
2023-01-30T10:19:35.199Z,4.22
2023-01-30T10:22:16.299Z,4.26
2023-01-30T10:24:56.932Z,4.31
2023-01-30T10:27:29.970Z,4.42
2023-01-30T10:30:01.240Z,4.49
2023-01-30T10:32:33.175Z,4.46
2023-01-30T10:35:06.799Z,4.52
2023-01-30T10:37:39.510Z,4.39
2023-01-30T10:40:19.167Z,4.31
2023-01-30T10:42:56.352Z,4.29
2023-01-30T10:45:32.742Z,4.24
2023-01-30T10:48:13.575Z,4.25
2023-01-30T10:50:51.554Z,4.21
2023-01-30T10:53:27.197Z,4.25
2023-01-30T10:56:01.588Z,4.20
2023-01-30T10:58:39.306Z,4.20
2023-01-30T11:01:13.083Z,4.21
2023-01-30T11:03:47.704Z,4.34
2023-01-30T11:06:18.622Z,4.45
2023-01-30T11:08:46.874Z,4.71
2023-01-30T11:11:32.079Z,5.06
2023-01-30T11:14:05.550Z,5.35
2023-01-30T11:16:43.184Z,5.57
2023-01-30T11:19:21.605Z,5.76
2023-01-30T11:21:51.854Z,5.98
2023-01-30T11:24:21.144Z,5.80
2023-01-30T11:26:49.430Z,5.59
2023-01-30T11:29:26.987Z,5.08
2023-01-30T11:31:55.340Z,4.96
2023-01-30T11:34:25.445Z,4.82
2023-01-30T11:36:53.415Z,4.70
2023-01-30T11:39:24.441Z,4.66
2023-01-30T11:42:04.662Z,4.61
2023-01-30T11:44:35.520Z,4.63
2023-01-30T11:47:07.879Z,4.73
2023-01-30T11:49:47.473Z,4.68
2023-01-30T11:52:28.462Z,4.68
2023-01-30T11:55:03.231Z,4.71
2023-01-30T11:57:30.988Z,4.77
2023-01-30T12:00:02.225Z,4.94
2023-01-30T12:02:33.504Z,4.93
2023-01-30T12:05:03.929Z,4.99
2023-01-30T12:07:34.330Z,5.10
2023-01-30T12:10:02.203Z,5.19
2023-01-30T12:12:35.754Z,5.25
2023-01-30T12:15:20.009Z,5.42
2023-01-30T12:17:53.614Z,5.49
2023-01-30T12:20:29.423Z,5.56
2023-01-30T12:23:08.935Z,5.66
2023-01-30T12:25:42.561Z,5.73
2023-01-30T12:28:19.753Z,5.78
2023-01-30T12:30:52.714Z,5.91
2023-01-30T12:33:20.429Z,5.81
2023-01-30T12:35:56.729Z,5.80
2023-01-30T12:38:39.096Z,5.71
2023-01-30T12:41:23.935Z,5.70
2023-01-30T12:44:07.559Z,5.57
2023-01-30T12:46:47.309Z,5.42
2023-01-30T12:49:33.308Z,5.30
2023-01-30T12:52:19.860Z,5.32
2023-01-30T12:54:55.596Z,5.35
2023-01-30T12:57:33.825Z,5.28
2023-01-30T13:00:17.872Z,5.20
2023-01-30T13:02:58.958Z,5.27
2023-01-30T13:05:38.439Z,5.32
2023-01-30T13:08:33.462Z,5.37
2023-01-30T13:11:09.337Z,5.37
2023-01-30T13:13:43.747Z,5.34
2023-01-30T13:16:16.945Z,5.31
2023-01-30T13:18:52.980Z,5.27
2023-01-30T13:21:25.703Z,5.30
2023-01-30T13:24:05.516Z,5.28
2023-01-30T13:26:36.760Z,5.27
2023-01-30T13:29:10.801Z,5.25
2023-01-30T13:31:43.378Z,5.25
2023-01-30T13:34:19.816Z,5.38
2023-01-30T13:36:52.306Z,5.45
2023-01-30T13:39:28.372Z,5.46
2023-01-30T13:42:01.244Z,5.64
2023-01-30T13:44:32.246Z,5.75
2023-01-30T13:47:21.389Z,5.74
2023-01-30T13:49:59.351Z,5.74
2023-01-30T13:52:33.766Z,5.75
2023-01-30T13:55:08.180Z,5.74
2023-01-30T13:57:48.047Z,5.76
2023-01-30T14:00:30.239Z,5.83
2023-01-30T14:03:30.522Z,5.77
2023-01-30T14:06:14.340Z,5.76
2023-01-30T14:08:51.667Z,5.76
2023-01-30T14:11:35.436Z,5.80
2023-01-30T14:14:07.397Z,5.75
2023-01-30T14:16:43.546Z,5.75
2023-01-30T14:19:29.141Z,5.76
2023-01-30T14:22:00.571Z,5.83
2023-01-30T14:24:31.373Z,5.75
2023-01-30T14:27:24.649Z,5.75
2023-01-30T14:29:56.669Z,5.85
2023-01-30T14:32:54.178Z,5.89
2023-01-30T14:35:29.664Z,5.98
2023-01-30T14:38:14.128Z,5.93
2023-01-30T14:41:03.957Z,5.91
2023-01-30T14:43:52.321Z,5.85
2023-01-30T14:46:54.695Z,5.82
2023-01-30T14:49:29.418Z,5.76
2023-01-30T14:51:57.238Z,5.75
2023-01-30T14:54:41.185Z,5.69
2023-01-30T14:57:21.183Z,5.67
2023-01-30T15:00:13.117Z,5.73
2023-01-30T15:02:44.315Z,5.69
2023-01-30T15:05:16.066Z,5.70
2023-01-30T15:07:46.950Z,5.73
2023-01-30T15:10:33.957Z,5.73
2023-01-30T15:13:22.688Z,5.69
2023-01-30T15:16:01.634Z,5.69
2023-01-30T15:18:44.193Z,5.70
2023-01-30T15:21:37.383Z,5.64
2023-01-30T15:24:32.493Z,5.70
2023-01-30T15:27:08.174Z,5.57
2023-01-30T15:30:08.283Z,5.61
2023-01-30T15:32:36.089Z,5.56
2023-01-30T15:35:22.581Z,5.57
2023-01-30T15:37:51.994Z,5.53
2023-01-30T15:40:22.444Z,5.55
2023-01-30T15:42:56.410Z,5.52
2023-01-30T15:45:37.692Z,5.47
2023-01-30T15:48:21.614Z,5.40
2023-01-30T15:50:51.855Z,5.43
2023-01-30T15:53:27.342Z,5.45
2023-01-30T15:55:55.818Z,5.39
2023-01-30T15:58:25.669Z,5.34
2023-01-30T16:00:56.211Z,5.32
2023-01-30T16:03:27.039Z,5.43
2023-01-30T16:05:56.732Z,5.38
2023-01-30T16:08:26.709Z,5.38
2023-01-30T16:10:54.538Z,5.35
2023-01-30T16:13:25.177Z,5.32
2023-01-30T16:15:59.251Z,5.30
2023-01-30T16:18:33.556Z,5.28
2023-01-30T16:21:04.495Z,5.17
2023-01-30T16:23:36.329Z,5.17
2023-01-30T16:26:05.703Z,5.10
2023-01-30T16:28:35.022Z,5.10
2023-01-30T16:31:05.966Z,5.09
2023-01-30T16:33:37.036Z,5.05
2023-01-30T16:36:05.830Z,5.06
2023-01-30T16:38:40.555Z,5.01
2023-01-30T16:41:29.674Z,4.95
2023-01-30T16:44:19.395Z,4.85
2023-01-30T16:46:50.065Z,4.71
2023-01-30T16:49:24.173Z,4.64
2023-01-30T16:52:01.775Z,4.59
2023-01-30T16:54:32.047Z,4.56
2023-01-30T16:57:02.154Z,4.52
2023-01-30T16:59:33.938Z,4.47
2023-01-30T17:02:05.308Z,4.45
2023-01-30T17:04:35.734Z,4.40
2023-01-30T17:07:05.197Z,4.36
2023-01-30T17:09:42.943Z,4.32
2023-01-30T17:12:37.177Z,4.25
2023-01-30T17:15:35.298Z,4.19
2023-01-30T17:18:03.229Z,4.17
2023-01-30T17:20:41.381Z,4.15
2023-01-30T17:23:10.699Z,4.11
2023-01-30T17:25:42.104Z,4.14
2023-01-30T17:28:16.759Z,4.16
2023-01-30T17:30:45.872Z,4.17
2023-01-30T17:33:13.462Z,4.10
2023-01-30T17:35:41.379Z,4.12
2023-01-30T17:38:10.223Z,4.14
2023-01-30T17:40:38.973Z,4.13
2023-01-30T17:43:06.871Z,4.13
2023-01-30T17:45:34.879Z,4.13
2023-01-30T17:48:03.902Z,4.14
2023-01-30T17:50:32.386Z,4.15
2023-01-30T17:53:00.201Z,4.15
2023-01-30T17:55:27.839Z,4.20
2023-01-30T17:57:56.427Z,4.21
2023-01-30T18:00:24.378Z,4.24
2023-01-30T18:02:53.062Z,4.26
2023-01-30T18:05:23.053Z,4.29
2023-01-30T18:07:51.058Z,4.25
2023-01-30T18:10:20.902Z,4.21
2023-01-30T18:12:48.643Z,4.18
2023-01-30T18:15:17.048Z,4.16
2023-01-30T18:17:47.568Z,4.14
2023-01-30T18:20:18.138Z,4.15
2023-01-30T18:22:47.963Z,4.12
2023-01-30T18:25:17.413Z,4.10
2023-01-30T18:27:47.905Z,4.08
2023-01-30T18:30:18.095Z,4.02
2023-01-30T18:32:52.935Z,4.03
2023-01-30T18:35:21.813Z,4.06
2023-01-30T18:37:50.979Z,4.14
2023-01-30T18:40:19.673Z,4.14
2023-01-30T18:42:47.638Z,4.18
2023-01-30T18:45:15.600Z,4.22
2023-01-30T18:47:43.395Z,4.20
2023-01-30T18:50:12.241Z,4.14
2023-01-30T18:52:39.893Z,4.10
2023-01-30T18:55:09.529Z,4.06
2023-01-30T18:57:37.233Z,4.07
2023-01-30T19:00:05.862Z,4.03
2023-01-30T19:02:33.575Z,4.02
2023-01-30T19:05:01.230Z,4.00
2023-01-30T19:07:28.789Z,3.96
2023-01-30T19:09:56.440Z,3.90
2023-01-30T19:12:43.355Z,3.86
2023-01-30T19:15:11.479Z,3.80
2023-01-30T19:17:39.102Z,3.80
2023-01-30T19:20:11.112Z,3.79
2023-01-30T19:22:38.860Z,3.76
2023-01-30T19:25:07.562Z,3.71
2023-01-30T19:27:38.419Z,3.70
2023-01-30T19:30:07.414Z,3.70
2023-01-30T19:32:35.396Z,3.71
2023-01-30T19:35:03.125Z,3.65
2023-01-30T19:37:30.893Z,3.66
2023-01-30T19:39:58.483Z,3.65
2023-01-30T19:42:26.249Z,3.66
2023-01-30T19:44:55.224Z,3.66
2023-01-30T19:47:23.348Z,3.66
2023-01-30T19:49:51.116Z,3.69
2023-01-30T19:52:18.759Z,3.67
2023-01-30T19:54:47.679Z,3.65
2023-01-30T19:57:15.258Z,3.69
2023-01-30T19:59:43.429Z,3.77
2023-01-30T20:02:12.769Z,3.79
2023-01-30T20:04:40.685Z,3.78
2023-01-30T20:07:08.335Z,3.77
2023-01-30T20:09:35.922Z,3.74
2023-01-30T20:12:03.646Z,3.73
2023-01-30T20:14:31.279Z,3.72
2023-01-30T20:16:58.936Z,3.74
2023-01-30T20:19:28.163Z,3.73
2023-01-30T20:21:56.063Z,3.72
2023-01-30T20:24:23.696Z,3.76
2023-01-30T20:26:51.303Z,3.79
2023-01-30T20:29:19.012Z,3.77
2023-01-30T20:31:46.791Z,3.75
2023-01-30T20:34:15.678Z,3.72
2023-01-30T20:36:44.730Z,3.68
2023-01-30T20:39:12.817Z,3.62
2023-01-30T20:41:40.687Z,3.55
2023-01-30T20:44:10.557Z,3.49
2023-01-30T20:46:41.419Z,3.45
2023-01-30T20:49:13.364Z,3.40
2023-01-30T20:51:41.760Z,3.40
2023-01-30T20:54:13.618Z,3.36
2023-01-30T20:56:42.927Z,3.32
2023-01-30T20:59:12.396Z,3.26
2023-01-30T21:01:40.566Z,3.23
2023-01-30T21:04:09.812Z,3.22
2023-01-30T21:06:44.798Z,3.18
2023-01-30T21:09:16.360Z,3.18
2023-01-30T21:11:44.075Z,3.18
2023-01-30T21:14:11.879Z,3.22
2023-01-30T21:16:40.174Z,3.25
2023-01-30T21:19:13.941Z,3.26
2023-01-30T21:21:43.990Z,3.25
2023-01-30T21:24:15.266Z,3.23
2023-01-30T21:26:46.514Z,3.27
2023-01-30T21:29:15.933Z,3.29
2023-01-30T21:31:44.763Z,3.28
2023-01-30T21:34:13.211Z,3.26
2023-01-30T21:36:41.210Z,3.26
2023-01-30T21:39:27.879Z,3.23
2023-01-30T21:42:14.422Z,3.22
2023-01-30T21:44:42.385Z,3.20
2023-01-30T21:47:10.027Z,3.21
2023-01-30T21:49:37.788Z,3.20
2023-01-30T21:52:05.744Z,3.13
2023-01-30T21:54:33.361Z,3.10
2023-01-30T21:57:02.562Z,3.05
2023-01-30T21:59:31.434Z,3.02
2023-01-30T22:01:59.089Z,3.01
2023-01-30T22:04:26.682Z,2.98
2023-01-30T22:06:54.494Z,2.95
2023-01-30T22:09:22.141Z,2.98
2023-01-30T22:11:49.728Z,2.99
2023-01-30T22:14:18.714Z,2.99
2023-01-30T22:16:46.310Z,2.99
2023-01-30T22:19:14.282Z,3.00
2023-01-30T22:21:42.005Z,3.01
2023-01-30T22:24:11.626Z,2.98
2023-01-30T22:26:39.697Z,2.97
2023-01-30T22:29:07.788Z,2.98
2023-01-30T22:31:40.393Z,2.97
2023-01-30T22:34:08.927Z,2.96
2023-01-30T22:36:37.546Z,2.96
2023-01-30T22:39:06.389Z,2.97
2023-01-30T22:41:36.369Z,2.99
2023-01-30T22:44:06.348Z,3.01
2023-01-30T22:46:37.508Z,3.01
2023-01-30T22:49:06.842Z,3.06
2023-01-30T22:51:37.193Z,3.02
2023-01-30T22:54:06.422Z,3.05
2023-01-30T22:56:37.070Z,3.06
2023-01-30T22:59:05.551Z,3.01
2023-01-30T23:01:34.988Z,2.99
2023-01-30T23:04:06.307Z,3.04
2023-01-30T23:06:34.801Z,3.07
2023-01-30T23:09:03.614Z,3.07
2023-01-30T23:11:32.969Z,3.09
2023-01-30T23:14:06.759Z,3.11
2023-01-30T23:16:36.047Z,3.09
2023-01-30T23:19:05.000Z,3.09
2023-01-30T23:21:35.970Z,3.08
2023-01-30T23:24:07.480Z,3.05
2023-01-30T23:26:38.207Z,3.05
2023-01-30T23:29:08.021Z,3.03
2023-01-30T23:31:37.038Z,3.02
2023-01-30T23:34:07.979Z,3.01
2023-01-30T23:36:36.524Z,2.98
2023-01-30T23:39:06.318Z,2.96
2023-01-30T23:41:36.825Z,2.95
2023-01-30T23:44:05.196Z,2.96
2023-01-30T23:46:34.410Z,2.97
2023-01-30T23:49:04.425Z,2.96
2023-01-30T23:51:35.491Z,2.93
2023-01-30T23:54:04.138Z,2.90
2023-01-30T23:56:34.073Z,2.89
2023-01-30T23:59:01.780Z,2.86
